KGWO/GWO METAR and TAF weather

Enter ICAO airport designator
Station Type Date Time Source
KGWO METAR 2022/01/19 18:53 UTC NOAA

KGWO 191853Z AUTO 19015G21KT 10SM OVC044 21/12 A2998 RMK AO2 SLP149 T02060122


Station Type Date Time Source
KGWO Decoded METAR 2022/01/19 18:53 UTC NOAA

GREENWOOD-LEFLORE AIRPORT, MS, United States (KGWO) 33-30N 090-05W 44M
Jan 19, 2022 - 01:53 PM EST / 2022.01.19 1853 UTC
Wind: from the S (190 degrees) at 17 MPH (15 KT) gusting to 24 MPH (21 KT):0
Visibility: 10 mile(s):0
Sky conditions: overcast
Temperature: 69.1 F (20.6 C)
Dew Point: 54.0 F (12.2 C)
Relative Humidity: 58%
Pressure (altimeter): 29.98 in. Hg (1015 hPa)
ob: KGWO 191853Z AUTO 19015G21KT 10SM OVC044 21/12 A2998 RMK AO2 SLP149 T02060122
cycle: 19

Station Type Date Time Source
KGWO TAF 2022/01/19 18:30 UTC NOAA

TAF KGWO 191726Z 1918/2018 18014G22KT P6SM BKN045
FM192300 21012G20KT P6SM SHRA VCTS SCT025CB BKN040
FM200200 36014KT P6SM OVC009
FM200600 36015G21KT P6SM -RA OVC010
FM200900 01019G25KT P6SM OVC015

Example: see airport list